createdAt,value
2018-06-02T00:00:02.761Z,18.16
2018-06-02T00:00:06.757Z,18.11
2018-06-02T00:00:10.973Z,18.16
2018-06-02T00:00:15.078Z,18.11
2018-06-02T00:00:18.965Z,18.14
2018-06-02T00:00:23.287Z,18.13
2018-06-02T00:00:27.494Z,18.16
2018-06-02T00:00:31.486Z,18.14
2018-06-02T00:00:35.702Z,18.17
2018-06-02T00:00:40.016Z,18.13
2018-06-02T00:00:44.339Z,18.16
2018-06-02T00:00:48.687Z,18.25
2018-06-02T00:00:53.003Z,18.2
2018-06-02T00:00:57.212Z,18.28
2018-06-02T00:01:01.315Z,18.19
2018-06-02T00:01:05.304Z,18.16
2018-06-02T00:01:09.515Z,18.16
2018-06-02T00:01:13.835Z,18.14
2018-06-02T00:01:18.046Z,18.1
2018-06-02T00:01:21.961Z,18.14
2018-06-02T00:01:26.065Z,18.17
2018-06-02T00:01:30.273Z,18.11
2018-06-02T00:01:34.378Z,18.19
2018-06-02T00:01:38.700Z,18.16
2018-06-02T00:01:43.018Z,18.16
2018-06-02T00:01:47.128Z,18.16
2018-06-02T00:01:51.237Z,18.21
2018-06-02T00:01:55.472Z,18.14
2018-06-02T00:01:59.681Z,18.17
2018-06-02T00:02:03.790Z,18.16
2018-06-02T00:02:07.908Z,18.13
2018-06-02T00:02:12.128Z,18.16
2018-06-02T00:02:16.445Z,18.14
2018-06-02T00:02:20.545Z,18.13
2018-06-02T00:02:24.656Z,18.19
2018-06-02T00:02:28.867Z,18.19
2018-06-02T00:02:32.969Z,18.13
2018-06-02T00:02:37.294Z,18.19
2018-06-02T00:02:41.515Z,18.19
2018-06-02T00:02:45.727Z,18.16
2018-06-02T00:02:49.943Z,18.19
2018-06-02T00:02:54.267Z,18.23
2018-06-02T00:02:58.494Z,18.2
2018-06-02T00:03:02.727Z,18.14
2018-06-02T00:03:07.057Z,18.13
2018-06-02T00:03:11.164Z,18.11
2018-06-02T00:03:15.159Z,18.11
2018-06-02T00:03:19.482Z,18.11
2018-06-02T00:03:23.697Z,18.19
2018-06-02T00:03:27.918Z,18.16
2018-06-02T00:03:32.128Z,18.19
2018-06-02T00:03:36.122Z,18.21
2018-06-02T00:03:40.336Z,18.16
2018-06-02T00:03:44.439Z,18.14
2018-06-02T00:03:48.752Z,18.21
2018-06-02T00:03:52.969Z,18.14
2018-06-02T00:03:57.182Z,18.14
2018-06-02T00:04:01.410Z,18.14
2018-06-02T00:04:05.746Z,18.19
2018-06-02T00:04:10.072Z,18.14
2018-06-02T00:04:14.290Z,18.26
2018-06-02T00:04:18.620Z,18.17
2018-06-02T00:04:22.724Z,18.16
2018-06-02T00:04:26.743Z,18.14
2018-06-02T00:04:31.066Z,18.13
2018-06-02T00:04:35.391Z,18.19
2018-06-02T00:04:39.709Z,18.16
2018-06-02T00:04:44.042Z,18.21
2018-06-02T00:04:48.258Z,18.2
2018-06-02T00:04:52.584Z,18.17
2018-06-02T00:04:56.683Z,18.16
2018-06-02T00:05:00.896Z,18.17
2018-06-02T00:05:05.114Z,18.16
2018-06-02T00:05:09.435Z,18.16
2018-06-02T00:05:13.647Z,18.14
2018-06-02T00:05:17.853Z,18.2
2018-06-02T00:05:21.955Z,18.16
2018-06-02T00:05:26.060Z,18.19
2018-06-02T00:05:30.266Z,18.14
2018-06-02T00:05:34.374Z,18.19
2018-06-02T00:05:38.594Z,18.21
2018-06-02T00:05:42.805Z,18.14
2018-06-02T00:05:47.125Z,18.17
2018-06-02T00:05:51.381Z,18.16
2018-06-02T00:05:55.699Z,18.19
2018-06-02T00:06:00.025Z,18.16
2018-06-02T00:06:04.236Z,18.19
2018-06-02T00:06:08.344Z,18.19
2018-06-02T00:06:12.560Z,18.17
2018-06-02T00:06:16.874Z,18.21
2018-06-02T00:06:21.195Z,18.17
2018-06-02T00:06:25.421Z,18.19
2018-06-02T00:06:29.631Z,18.13
2018-06-02T00:06:33.951Z,18.21
2018-06-02T00:06:38.270Z,18.17
2018-06-02T00:06:42.480Z,18.16
2018-06-02T00:06:46.805Z,18.16
2018-06-02T00:06:51.015Z,18.16
2018-06-02T00:06:55.225Z,18.16
2018-06-02T00:06:59.441Z,18.19
2018-06-02T00:07:03.593Z,18.17
2018-06-02T00:07:07.704Z,18.16
2018-06-02T00:07:12.026Z,18.19
2018-06-02T00:07:16.369Z,18.19
2018-06-02T00:07:20.584Z,18.14
2018-06-02T00:07:24.919Z,18.13
2018-06-02T00:07:29.127Z,18.31
2018-06-02T00:07:33.230Z,18.19
2018-06-02T00:07:37.555Z,18.14
2018-06-02T00:07:41.765Z,18.16
2018-06-02T00:07:45.976Z,18.16
2018-06-02T00:07:50.195Z,18.14
2018-06-02T00:07:54.311Z,18.19
2018-06-02T00:07:58.624Z,18.19
2018-06-02T00:08:02.620Z,18.19
2018-06-02T00:08:06.726Z,18.19
2018-06-02T00:08:10.937Z,18.17
2018-06-02T00:08:15.146Z,18.13
2018-06-02T00:08:19.465Z,18.19
2018-06-02T00:08:23.674Z,18.13
2018-06-02T00:08:27.887Z,18.16
2018-06-02T00:08:32.117Z,18.19
2018-06-02T00:08:36.434Z,18.16
2018-06-02T00:08:40.535Z,18.19
2018-06-02T00:08:44.743Z,18.21
2018-06-02T00:08:48.844Z,18.16
2018-06-02T00:08:52.959Z,18.11
2018-06-02T00:08:56.964Z,18.14
2018-06-02T00:09:01.281Z,18.14
2018-06-02T00:09:05.384Z,18.11
2018-06-02T00:09:09.492Z,18.13
2018-06-02T00:09:13.747Z,18.13
2018-06-02T00:09:18.068Z,18.16
2018-06-02T00:09:22.385Z,18.19
2018-06-02T00:09:26.387Z,18.17
2018-06-02T00:09:30.723Z,18.21
2018-06-02T00:09:34.718Z,18.14
2018-06-02T00:09:38.960Z,18.16
2018-06-02T00:09:43.285Z,18.16
2018-06-02T00:09:47.507Z,18.16
2018-06-02T00:09:51.827Z,18.19
2018-06-02T00:09:56.038Z,18.14
2018-06-02T00:10:00.364Z,18.1
2018-06-02T00:10:04.365Z,18.26
2018-06-02T00:10:08.577Z,18.16
2018-06-02T00:10:12.783Z,18.2
2018-06-02T00:10:17.112Z,18.16
2018-06-02T00:10:21.366Z,18.17
2018-06-02T00:10:25.685Z,18.16
2018-06-02T00:10:30.004Z,18.16
2018-06-02T00:10:34.212Z,18.19
2018-06-02T00:10:38.423Z,18.14
2018-06-02T00:10:42.639Z,18.25
2018-06-02T00:10:46.966Z,18.1
2018-06-02T00:10:51.073Z,18.14
2018-06-02T00:10:55.176Z,18.17
2018-06-02T00:10:59.283Z,18.1
2018-06-02T00:11:04.020Z,18.19
2018-06-02T00:11:08.342Z,18.14
2018-06-02T00:11:12.875Z,18.11
2018-06-02T00:11:17.346Z,18.16
2018-06-02T00:11:22.065Z,18.11
2018-06-02T00:11:26.216Z,18.23
2018-06-02T00:11:30.450Z,18.2
2018-06-02T00:11:34.656Z,18.16
2018-06-02T00:11:38.871Z,18.14
2018-06-02T00:11:43.004Z,18.13
2018-06-02T00:11:47.218Z,18.1
2018-06-02T00:11:51.544Z,18.11
2018-06-02T00:11:55.656Z,18.14
2018-06-02T00:11:59.868Z,18.17
2018-06-02T00:12:03.968Z,18.13
2018-06-02T00:12:07.855Z,18.07
2018-06-02T00:12:12.062Z,18.17
2018-06-02T00:12:16.272Z,18.16
2018-06-02T00:12:20.482Z,18.19
2018-06-02T00:12:24.804Z,18.14
2018-06-02T00:12:29.117Z,18.16
2018-06-02T00:12:33.431Z,18.11
2018-06-02T00:12:37.750Z,18.17
2018-06-02T00:12:41.971Z,18.17
2018-06-02T00:12:46.296Z,18.16
2018-06-02T00:12:50.624Z,18.14
2018-06-02T00:12:54.841Z,18.11
2018-06-02T00:12:59.155Z,18.11
2018-06-02T00:13:03.382Z,18.14
2018-06-02T00:13:07.591Z,18.2
2018-06-02T00:13:11.804Z,18.16
2018-06-02T00:13:16.013Z,18.17
2018-06-02T00:13:20.224Z,18.17
2018-06-02T00:13:24.541Z,18.13
2018-06-02T00:13:28.752Z,18.13
2018-06-02T00:13:33.071Z,18.17
2018-06-02T00:13:37.277Z,18.17
2018-06-02T00:13:41.594Z,18.14
2018-06-02T00:13:45.706Z,18.13
2018-06-02T00:13:49.811Z,18.17
2018-06-02T00:13:53.820Z,18.13
2018-06-02T00:13:58.035Z,18.13
2018-06-02T00:14:02.248Z,18.2
2018-06-02T00:14:06.241Z,18.1
2018-06-02T00:14:10.341Z,18.16
2018-06-02T00:14:14.658Z,18.16
2018-06-02T00:14:18.983Z,18.14
2018-06-02T00:14:23.311Z,18.09
2018-06-02T00:14:27.197Z,18.11
2018-06-02T00:14:31.528Z,18.1
2018-06-02T00:14:35.519Z,18.09
2018-06-02T00:14:39.727Z,18.09
2018-06-02T00:14:43.737Z,18.19
2018-06-02T00:14:47.964Z,18.14
2018-06-02T00:14:52.278Z,18.16
2018-06-02T00:14:56.489Z,18.13
2018-06-02T00:15:00.699Z,18.14
2018-06-02T00:15:04.702Z,18.09
2018-06-02T00:15:08.910Z,18.17
2018-06-02T00:15:13.016Z,18.11
2018-06-02T00:15:17.120Z,18.09
2018-06-02T00:15:21.329Z,18.17
2018-06-02T00:15:25.653Z,18.1
2018-06-02T00:15:29.864Z,18.19
2018-06-02T00:15:33.984Z,18.09
2018-06-02T00:15:38.310Z,18.11
2018-06-02T00:15:42.635Z,18.09
2018-06-02T00:15:46.746Z,18.11
2018-06-02T00:15:50.965Z,18.14
2018-06-02T00:15:55.175Z,18.13
2018-06-02T00:15:59.386Z,18.11
2018-06-02T00:16:03.494Z,18.13
2018-06-02T00:16:07.596Z,18.13
2018-06-02T00:16:11.921Z,18.16
2018-06-02T00:16:15.919Z,18.13
2018-06-02T00:16:20.244Z,18.13
2018-06-02T00:16:24.469Z,18.07
2018-06-02T00:16:28.683Z,18.11
2018-06-02T00:16:32.784Z,18.14
2018-06-02T00:16:37.139Z,18.11
2018-06-02T00:16:41.361Z,18.09
2018-06-02T00:16:45.678Z,18.11
2018-06-02T00:16:49.897Z,18.09
2018-06-02T00:16:54.215Z,18.04
2018-06-02T00:16:58.432Z,18.11
2018-06-02T00:17:02.742Z,18.1
2018-06-02T00:17:07.071Z,18.13
2018-06-02T00:17:11.393Z,18.07
2018-06-02T00:17:15.605Z,18.11
2018-06-02T00:17:19.930Z,18.09
2018-06-02T00:17:24.246Z,18.11
2018-06-02T00:17:28.348Z,18.11
2018-06-02T00:17:32.563Z,18.13
2018-06-02T00:17:36.772Z,18.09
2018-06-02T00:17:41.034Z,18.1
2018-06-02T00:17:45.362Z,18.1
2018-06-02T00:17:49.680Z,18.16
2018-06-02T00:17:53.904Z,18.07
2018-06-02T00:17:58.220Z,18.09
2018-06-02T00:18:02.536Z,18.09
2018-06-02T00:18:06.638Z,18.09
2018-06-02T00:18:10.853Z,18.1
2018-06-02T00:18:15.068Z,18.07
2018-06-02T00:18:19.386Z,18.1
2018-06-02T00:18:23.594Z,18.11
2018-06-02T00:18:27.923Z,18.11
2018-06-02T00:18:32.031Z,17.99
2018-06-02T00:18:36.375Z,18.09
2018-06-02T00:18:40.585Z,18.09
2018-06-02T00:18:44.801Z,18.14
2018-06-02T00:18:49.035Z,18.1
2018-06-02T00:18:53.353Z,18.09
2018-06-02T00:18:57.571Z,18.09
2018-06-02T00:19:01.906Z,18.11
2018-06-02T00:19:06.020Z,18.05
2018-06-02T00:19:10.121Z,18.1
2018-06-02T00:19:14.446Z,18.1
2018-06-02T00:19:18.658Z,18.09
2018-06-02T00:19:22.982Z,18.1
2018-06-02T00:19:27.089Z,18.1
2018-06-02T00:19:31.194Z,18.09
2018-06-02T00:19:35.401Z,18.1
2018-06-02T00:19:39.286Z,17.98
2018-06-02T00:19:43.404Z,17.98
2018-06-02T00:19:47.726Z,17.98
2018-06-02T00:19:51.936Z,18.01
2018-06-02T00:19:56.265Z,18.14
2018-06-02T00:20:00.596Z,17.95
2018-06-02T00:20:04.717Z,18.11
2018-06-02T00:20:08.933Z,18.09
2018-06-02T00:20:13.265Z,17.98
2018-06-02T00:20:17.370Z,18.1
2018-06-02T00:20:21.579Z,18.09
2018-06-02T00:20:25.906Z,18.04
2018-06-02T00:20:30.113Z,18.07
2018-06-02T00:20:34.446Z,18.07
2018-06-02T00:20:38.778Z,17.99
2018-06-02T00:20:43.091Z,18.01
2018-06-02T00:20:47.199Z,18.07
2018-06-02T00:20:51.522Z,18.14
2018-06-02T00:20:55.739Z,18.09
2018-06-02T00:20:59.847Z,18.16
2018-06-02T00:21:03.942Z,17.99
2018-06-02T00:21:08.161Z,18.07
2018-06-02T00:21:12.266Z,17.95
2018-06-02T00:21:16.488Z,18.14
2018-06-02T00:21:20.810Z,17.96
2018-06-02T00:21:25.130Z,17.95
2018-06-02T00:21:29.125Z,17.98
2018-06-02T00:21:33.446Z,17.94
2018-06-02T00:21:37.664Z,17.95
2018-06-02T00:21:41.874Z,17.95
2018-06-02T00:21:46.093Z,17.99
2018-06-02T00:21:50.308Z,17.96
2018-06-02T00:21:54.629Z,17.99
2018-06-02T00:21:58.947Z,18.01
2018-06-02T00:22:03.049Z,17.95
2018-06-02T00:22:07.266Z,17.98
2018-06-02T00:22:11.476Z,17.92
2018-06-02T00:22:15.583Z,18.04
2018-06-02T00:22:19.905Z,17.98
2018-06-02T00:22:24.115Z,18.04
2018-06-02T00:22:28.215Z,17.95
2018-06-02T00:22:32.334Z,18.01
2018-06-02T00:22:36.652Z,18.07
2018-06-02T00:22:40.864Z,17.96
2018-06-02T00:22:45.073Z,17.91
2018-06-02T00:22:49.392Z,18.05
2018-06-02T00:22:53.711Z,17.96
2018-06-02T00:22:57.823Z,17.99
2018-06-02T00:23:01.932Z,17.99
2018-06-02T00:23:06.269Z,18.04
2018-06-02T00:23:10.595Z,18.01
2018-06-02T00:23:14.699Z,17.98
2018-06-02T00:23:18.801Z,17.99
2018-06-02T00:23:23.012Z,17.98
2018-06-02T00:23:27.335Z,18.02
2018-06-02T00:23:31.542Z,18.01
2018-06-02T00:23:35.645Z,17.99
2018-06-02T00:23:39.967Z,17.99
2018-06-02T00:23:44.171Z,17.99
2018-06-02T00:23:48.488Z,17.96
2018-06-02T00:23:52.596Z,17.99
2018-06-02T00:23:56.808Z,17.99
2018-06-02T00:24:00.957Z,17.98
2018-06-02T00:24:05.110Z,18.02
2018-06-02T00:24:09.213Z,17.95
2018-06-02T00:24:13.427Z,17.98
2018-06-02T00:24:17.632Z,17.99
2018-06-02T00:24:21.842Z,17.92
2018-06-02T00:24:26.194Z,17.95
2018-06-02T00:24:30.524Z,17.96
2018-06-02T00:24:34.859Z,18.01
2018-06-02T00:24:39.188Z,17.99
2018-06-02T00:24:43.293Z,18.05
2018-06-02T00:24:47.392Z,17.96
2018-06-02T00:24:51.608Z,17.99
2018-06-02T00:24:55.928Z,18.05
2018-06-02T00:25:00.136Z,17.96
2018-06-02T00:25:04.347Z,17.99
2018-06-02T00:25:08.451Z,17.98
2018-06-02T00:25:12.663Z,17.99
2018-06-02T00:25:16.882Z,17.98
2018-06-02T00:25:21.089Z,17.89
2018-06-02T00:25:25.322Z,17.95
2018-06-02T00:25:29.534Z,17.94
2018-06-02T00:25:33.756Z,17.96
2018-06-02T00:25:38.073Z,17.94
2018-06-02T00:25:42.075Z,17.96
2018-06-02T00:25:46.294Z,17.98
2018-06-02T00:25:50.606Z,17.96
2018-06-02T00:25:54.604Z,17.94
2018-06-02T00:25:58.708Z,17.92
2018-06-02T00:26:02.751Z,17.96
2018-06-02T00:26:07.080Z,17.96
2018-06-02T00:26:11.079Z,17.95
2018-06-02T00:26:15.396Z,18.02
2018-06-02T00:26:19.502Z,17.96
2018-06-02T00:26:23.844Z,17.98
2018-06-02T00:26:27.950Z,17.95
2018-06-02T00:26:32.157Z,17.95
2018-06-02T00:26:36.373Z,17.92
2018-06-02T00:26:40.485Z,17.91
2018-06-02T00:26:44.697Z,17.96
2018-06-02T00:26:49.024Z,17.91
2018-06-02T00:26:53.341Z,17.91
2018-06-02T00:26:57.552Z,17.92
2018-06-02T00:27:01.780Z,17.92
2018-06-02T00:27:05.886Z,17.95
2018-06-02T00:27:10.202Z,17.94
2018-06-02T00:27:14.534Z,17.92
2018-06-02T00:27:18.866Z,17.98
2018-06-02T00:27:23.185Z,17.92
2018-06-02T00:27:27.296Z,17.94
2018-06-02T00:27:31.502Z,17.98
2018-06-02T00:27:35.719Z,17.94
2018-06-02T00:27:39.936Z,17.92
2018-06-02T00:27:43.928Z,17.91
2018-06-02T00:27:48.137Z,17.92
2018-06-02T00:27:52.353Z,17.98
2018-06-02T00:27:56.667Z,17.92
2018-06-02T00:28:00.773Z,17.92
2018-06-02T00:28:04.984Z,17.96
2018-06-02T00:28:09.099Z,17.89
2018-06-02T00:28:13.424Z,17.91
2018-06-02T00:28:17.528Z,17.86
2018-06-02T00:28:21.518Z,17.92
2018-06-02T00:28:25.729Z,17.92
2018-06-02T00:28:29.828Z,17.91
2018-06-02T00:28:34.043Z,17.95
2018-06-02T00:28:38.144Z,17.91
2018-06-02T00:28:42.248Z,17.92
2018-06-02T00:28:46.469Z,17.92
2018-06-02T00:28:50.789Z,17.92
2018-06-02T00:28:55.101Z,17.95
2018-06-02T00:28:59.312Z,17.92
2018-06-02T00:29:03.681Z,17.94
2018-06-02T00:29:07.894Z,17.92
2018-06-02T00:29:12.105Z,17.92
2018-06-02T00:29:16.323Z,17.94
2018-06-02T00:29:20.681Z,17.95
2018-06-02T00:29:24.903Z,17.95
2018-06-02T00:29:29.309Z,17.96
2018-06-02T00:29:33.519Z,17.96
2018-06-02T00:29:37.836Z,17.91
2018-06-02T00:29:41.942Z,17.94
2018-06-02T00:29:46.266Z,17.95
2018-06-02T00:29:50.496Z,17.91
2018-06-02T00:29:54.701Z,17.92
2018-06-02T00:29:59.024Z,17.87
2018-06-02T00:30:03.025Z,17.98
2018-06-02T00:30:06.913Z,17.92
2018-06-02T00:30:11.128Z,17.89
2018-06-02T00:30:15.350Z,17.94
2018-06-02T00:30:19.346Z,17.92
2018-06-02T00:30:23.562Z,17.92
2018-06-02T00:30:27.663Z,17.91
2018-06-02T00:30:31.995Z,17.94
2018-06-02T00:30:36.323Z,17.87
2018-06-02T00:30:40.533Z,17.83
2018-06-02T00:30:44.649Z,17.91
2018-06-02T00:30:48.857Z,17.89
2018-06-02T00:30:53.181Z,17.92
2018-06-02T00:30:57.391Z,17.87
2018-06-02T00:31:01.490Z,17.95
2018-06-02T00:31:05.271Z,17.87
2018-06-02T00:31:09.381Z,17.91
2018-06-02T00:31:13.592Z,17.84
2018-06-02T00:31:17.698Z,17.87
2018-06-02T00:31:21.908Z,17.87
2018-06-02T00:31:26.023Z,17.91
2018-06-02T00:31:30.239Z,17.91
2018-06-02T00:31:34.487Z,17.89
2018-06-02T00:31:38.584Z,17.92
2018-06-02T00:31:42.574Z,17.84
2018-06-02T00:31:46.892Z,17.83
2018-06-02T00:31:51.097Z,17.87
2018-06-02T00:31:55.304Z,17.84
2018-06-02T00:31:59.514Z,17.87
2018-06-02T00:32:03.776Z,17.87
2018-06-02T00:32:07.990Z,17.87
2018-06-02T00:32:12.208Z,17.89
2018-06-02T00:32:16.530Z,17.84
2018-06-02T00:32:20.853Z,17.95
2018-06-02T00:32:25.064Z,17.89
2018-06-02T00:32:29.279Z,17.86
2018-06-02T00:32:33.612Z,17.83
2018-06-02T00:32:37.715Z,17.89
2018-06-02T00:32:41.816Z,17.87
2018-06-02T00:32:45.809Z,17.84
2018-06-02T00:32:49.920Z,17.8
2018-06-02T00:32:54.241Z,17.87
2018-06-02T00:32:58.242Z,17.86
2018-06-02T00:33:02.461Z,17.86
2018-06-02T00:33:06.565Z,17.86
2018-06-02T00:33:10.886Z,17.86
2018-06-02T00:33:15.204Z,17.92
2018-06-02T00:33:19.530Z,17.91
2018-06-02T00:33:23.635Z,17.89
2018-06-02T00:33:27.740Z,17.92
2018-06-02T00:33:32.058Z,17.86
2018-06-02T00:33:36.276Z,17.83
2018-06-02T00:33:40.596Z,17.84
2018-06-02T00:33:44.812Z,17.81
2018-06-02T00:33:49.129Z,17.83
2018-06-02T00:33:53.464Z,17.89
2018-06-02T00:33:57.788Z,17.86
2018-06-02T00:34:02.052Z,17.84
2018-06-02T00:34:06.156Z,17.83
2018-06-02T00:34:10.371Z,17.87
2018-06-02T00:34:14.740Z,17.91
2018-06-02T00:34:18.954Z,17.83
2018-06-02T00:34:23.274Z,17.81
2018-06-02T00:34:27.606Z,17.91
2018-06-02T00:34:31.599Z,17.83
2018-06-02T00:34:35.816Z,17.86
2018-06-02T00:34:40.029Z,17.86
2018-06-02T00:34:44.391Z,17.89
2018-06-02T00:34:48.710Z,17.87
2018-06-02T00:34:52.920Z,17.89
2018-06-02T00:34:57.246Z,17.81
2018-06-02T00:35:01.454Z,17.79
2018-06-02T00:35:05.518Z,17.87
2018-06-02T00:35:09.840Z,17.81
2018-06-02T00:35:13.941Z,17.74
2018-06-02T00:35:18.266Z,17.86
2018-06-02T00:35:22.479Z,17.79
2018-06-02T00:35:26.700Z,17.86
2018-06-02T00:35:30.917Z,17.79
2018-06-02T00:35:35.163Z,17.86
2018-06-02T00:35:39.485Z,17.74
2018-06-02T00:35:43.596Z,17.79
2018-06-02T00:35:47.917Z,17.76
2018-06-02T00:35:52.235Z,17.83
2018-06-02T00:35:56.231Z,17.79
2018-06-02T00:36:00.445Z,17.77
2018-06-02T00:36:04.539Z,17.8
2018-06-02T00:36:08.536Z,17.79
2018-06-02T00:36:12.757Z,17.79
2018-06-02T00:36:16.970Z,17.81
2018-06-02T00:36:21.181Z,17.73
2018-06-02T00:36:25.497Z,17.79
2018-06-02T00:36:29.711Z,17.81
2018-06-02T00:36:33.820Z,17.81
2018-06-02T00:36:38.033Z,17.77
2018-06-02T00:36:42.251Z,17.74
2018-06-02T00:36:46.573Z,17.81
2018-06-02T00:36:50.799Z,17.8
2018-06-02T00:36:54.914Z,17.79
2018-06-02T00:36:59.019Z,17.8
2018-06-02T00:37:03.173Z,17.83
2018-06-02T00:37:07.063Z,17.8
2018-06-02T00:37:11.272Z,17.79
2018-06-02T00:37:15.481Z,17.8
2018-06-02T00:37:19.696Z,17.8
2018-06-02T00:37:23.906Z,17.74
2018-06-02T00:37:28.237Z,17.81
2018-06-02T00:37:32.227Z,17.74
2018-06-02T00:37:36.557Z,17.8
2018-06-02T00:37:40.871Z,17.77
2018-06-02T00:37:45.082Z,17.8
2018-06-02T00:37:49.193Z,17.77
2018-06-02T00:37:53.405Z,17.77
2018-06-02T00:37:57.744Z,17.74
2018-06-02T00:38:02.010Z,17.8
2018-06-02T00:38:06.225Z,17.73
2018-06-02T00:38:10.548Z,17.79
2018-06-02T00:38:14.756Z,17.8
2018-06-02T00:38:18.860Z,17.74
2018-06-02T00:38:23.072Z,17.73
2018-06-02T00:38:27.284Z,17.66
2018-06-02T00:38:31.600Z,17.66
2018-06-02T00:38:35.596Z,17.79
2018-06-02T00:38:39.809Z,17.7
2018-06-02T00:38:44.033Z,17.66
2018-06-02T00:38:48.247Z,17.7
2018-06-02T00:38:52.354Z,17.7
2018-06-02T00:38:56.486Z,17.73
2018-06-02T00:39:00.695Z,17.68
2018-06-02T00:39:04.920Z,17.7
2018-06-02T00:39:09.156Z,17.79
2018-06-02T00:39:13.476Z,17.68
2018-06-02T00:39:17.797Z,17.74
2018-06-02T00:39:22.006Z,17.66
2018-06-02T00:39:26.222Z,17.71
2018-06-02T00:39:30.429Z,17.62
2018-06-02T00:39:34.645Z,17.71
2018-06-02T00:39:38.962Z,17.74
2018-06-02T00:39:43.075Z,17.66
2018-06-02T00:39:47.395Z,17.77
2018-06-02T00:39:51.731Z,17.68
2018-06-02T00:39:56.063Z,17.76
2018-06-02T00:40:00.175Z,17.7
2018-06-02T00:40:04.321Z,17.77
2018-06-02T00:40:08.206Z,17.62
2018-06-02T00:40:12.420Z,17.73
2018-06-02T00:40:16.635Z,17.63
2018-06-02T00:40:20.631Z,17.74
2018-06-02T00:40:24.948Z,17.66
2018-06-02T00:40:29.157Z,17.63
2018-06-02T00:40:33.260Z,17.62
2018-06-02T00:40:37.583Z,17.62
2018-06-02T00:40:41.694Z,17.68
2018-06-02T00:40:45.901Z,17.76
2018-06-02T00:40:50.007Z,17.6
2018-06-02T00:40:54.226Z,17.73
2018-06-02T00:40:58.331Z,17.73
2018-06-02T00:41:02.435Z,17.76
2018-06-02T00:41:06.444Z,17.58
2018-06-02T00:41:10.659Z,17.79
2018-06-02T00:41:14.877Z,17.74
2018-06-02T00:41:19.088Z,17.79
2018-06-02T00:41:23.402Z,17.77
2018-06-02T00:41:27.717Z,17.76
2018-06-02T00:41:31.938Z,17.77
2018-06-02T00:41:36.155Z,17.71
2018-06-02T00:41:40.155Z,17.66
2018-06-02T00:41:44.262Z,17.7
2018-06-02T00:41:48.588Z,17.58
2018-06-02T00:41:52.827Z,17.71
2018-06-02T00:41:57.038Z,17.77
2018-06-02T00:42:01.148Z,17.79
2018-06-02T00:42:05.300Z,17.6
2018-06-02T00:42:09.620Z,17.66
2018-06-02T00:42:13.939Z,17.7
2018-06-02T00:42:18.042Z,17.6
2018-06-02T00:42:22.254Z,17.68
2018-06-02T00:42:26.468Z,17.66
2018-06-02T00:42:30.680Z,17.77
2018-06-02T00:42:34.785Z,17.65
2018-06-02T00:42:39.001Z,17.6
2018-06-02T00:42:43.211Z,17.65
2018-06-02T00:42:47.534Z,17.65
2018-06-02T00:42:51.753Z,17.65
2018-06-02T00:42:55.961Z,17.66
2018-06-02T00:43:00.176Z,17.65
2018-06-02T00:43:04.170Z,17.62
2018-06-02T00:43:08.495Z,17.73
2018-06-02T00:43:12.610Z,17.65
2018-06-02T00:43:16.928Z,17.7
2018-06-02T00:43:21.160Z,17.65
2018-06-02T00:43:25.480Z,17.57
2018-06-02T00:43:29.709Z,17.7
2018-06-02T00:43:34.029Z,17.65
2018-06-02T00:43:38.135Z,17.7
2018-06-02T00:43:42.229Z,17.6
2018-06-02T00:43:46.446Z,17.66
2018-06-02T00:43:50.440Z,17.7
2018-06-02T00:43:54.650Z,17.73
2018-06-02T00:43:58.973Z,17.62
2018-06-02T00:44:03.195Z,17.66
2018-06-02T00:44:07.304Z,17.73
2018-06-02T00:44:11.519Z,17.65
2018-06-02T00:44:15.837Z,17.63
2018-06-02T00:44:20.051Z,17.71
2018-06-02T00:44:24.261Z,17.62
2018-06-02T00:44:28.172Z,17.58
2018-06-02T00:44:32.274Z,17.6
2018-06-02T00:44:36.598Z,17.6
2018-06-02T00:44:40.701Z,17.73
2018-06-02T00:44:45.031Z,17.65
2018-06-02T00:44:49.245Z,17.58
2018-06-02T00:44:53.566Z,17.65
2018-06-02T00:44:57.781Z,17.7
2018-06-02T00:45:01.776Z,17.7
2018-06-02T00:45:05.558Z,17.66
2018-06-02T00:45:09.881Z,17.7
2018-06-02T00:45:14.203Z,17.7
2018-06-02T00:45:18.415Z,17.73
2018-06-02T00:45:22.623Z,17.73
2018-06-02T00:45:26.956Z,17.76
2018-06-02T00:45:31.277Z,17.7
2018-06-02T00:45:35.490Z,17.76
2018-06-02T00:45:39.817Z,17.74
2018-06-02T00:45:44.025Z,17.7
2018-06-02T00:45:48.342Z,17.76
2018-06-02T00:45:52.670Z,17.62
2018-06-02T00:45:56.907Z,17.68
2018-06-02T00:46:01.128Z,17.77
2018-06-02T00:46:05.454Z,17.76
2018-06-02T00:46:09.774Z,17.66
2018-06-02T00:46:13.883Z,17.77
2018-06-02T00:46:18.199Z,17.62
2018-06-02T00:46:22.413Z,17.65
2018-06-02T00:46:26.624Z,17.65
2018-06-02T00:46:30.845Z,17.68
2018-06-02T00:46:34.954Z,17.73
2018-06-02T00:46:39.274Z,17.65
2018-06-02T00:46:43.484Z,17.65
2018-06-02T00:46:47.702Z,17.63
2018-06-02T00:46:52.030Z,17.63
2018-06-02T00:46:56.241Z,17.68
2018-06-02T00:47:00.349Z,17.74
2018-06-02T00:47:04.454Z,17.62
2018-06-02T00:47:08.553Z,17.63
2018-06-02T00:47:12.767Z,17.73
2018-06-02T00:47:16.977Z,17.63
2018-06-02T00:47:21.193Z,17.63
2018-06-02T00:47:25.295Z,17.62
2018-06-02T00:47:29.446Z,17.66
2018-06-02T00:47:33.766Z,17.66
2018-06-02T00:47:38.096Z,17.63
2018-06-02T00:47:42.413Z,17.63
2018-06-02T00:47:46.515Z,17.73
2018-06-02T00:47:50.837Z,17.66
2018-06-02T00:47:55.051Z,17.66
2018-06-02T00:47:59.259Z,17.62
2018-06-02T00:48:03.354Z,17.63
2018-06-02T00:48:07.718Z,17.65
2018-06-02T00:48:11.944Z,17.63
2018-06-02T00:48:16.044Z,17.62
2018-06-02T00:48:20.255Z,17.66
2018-06-02T00:48:24.467Z,17.57
2018-06-02T00:48:28.786Z,17.65
2018-06-02T00:48:33.003Z,17.65
2018-06-02T00:48:36.895Z,17.66
2018-06-02T00:48:41.210Z,17.68
2018-06-02T00:48:45.310Z,17.65
2018-06-02T00:48:49.520Z,17.65
2018-06-02T00:48:53.840Z,17.68
2018-06-02T00:48:58.051Z,17.63
2018-06-02T00:49:02.275Z,17.58
2018-06-02T00:49:06.270Z,17.63
2018-06-02T00:49:10.591Z,17.6
2018-06-02T00:49:14.803Z,17.49
2018-06-02T00:49:19.013Z,17.63
2018-06-02T00:49:23.222Z,17.66
2018-06-02T00:49:27.228Z,17.65
2018-06-02T00:49:31.443Z,17.62
2018-06-02T00:49:35.764Z,17.66
2018-06-02T00:49:40.227Z,17.6
2018-06-02T00:49:44.548Z,17.63
2018-06-02T00:49:48.762Z,17.63
2018-06-02T00:49:52.993Z,17.65
2018-06-02T00:49:57.319Z,17.71
2018-06-02T00:50:01.635Z,17.63
2018-06-02T00:50:05.856Z,17.62
2018-06-02T00:50:09.849Z,17.65
2018-06-02T00:50:14.173Z,17.65
2018-06-02T00:50:18.385Z,17.6
2018-06-02T00:50:22.594Z,17.6
2018-06-02T00:50:26.908Z,17.6
2018-06-02T00:50:31.221Z,17.63
2018-06-02T00:50:35.340Z,17.6
2018-06-02T00:50:39.551Z,17.6
2018-06-02T00:50:43.653Z,17.6
2018-06-02T00:50:47.984Z,17.55
2018-06-02T00:50:52.093Z,17.62
2018-06-02T00:50:56.195Z,17.55
2018-06-02T00:51:00.405Z,17.6
2018-06-02T00:51:04.709Z,17.47
2018-06-02T00:51:09.037Z,17.6
2018-06-02T00:51:13.152Z,17.6
2018-06-02T00:51:17.364Z,17.58
2018-06-02T00:51:21.680Z,17.57
2018-06-02T00:51:25.784Z,17.57
2018-06-02T00:51:29.992Z,17.57
2018-06-02T00:51:34.199Z,17.55
2018-06-02T00:51:38.406Z,17.63
2018-06-02T00:51:42.615Z,17.57
2018-06-02T00:51:46.725Z,17.58
2018-06-02T00:51:50.943Z,17.63
2018-06-02T00:51:55.263Z,17.63
2018-06-02T00:51:59.487Z,17.65
2018-06-02T00:52:03.596Z,17.51
2018-06-02T00:52:07.703Z,17.55
2018-06-02T00:52:11.803Z,17.65
2018-06-02T00:52:15.904Z,17.65
2018-06-02T00:52:20.217Z,17.63
2018-06-02T00:52:24.320Z,17.54
2018-06-02T00:52:28.426Z,17.62
2018-06-02T00:52:32.530Z,17.6
2018-06-02T00:52:36.852Z,17.6
2018-06-02T00:52:40.960Z,17.62
2018-06-02T00:52:45.062Z,17.58
2018-06-02T00:52:49.422Z,17.66
2018-06-02T00:52:53.743Z,17.62
2018-06-02T00:52:57.957Z,17.62
2018-06-02T00:53:02.061Z,17.6
2018-06-02T00:53:06.382Z,17.6
2018-06-02T00:53:10.705Z,17.57
2018-06-02T00:53:14.926Z,17.62
2018-06-02T00:53:19.033Z,17.53
2018-06-02T00:53:23.133Z,17.6
2018-06-02T00:53:27.341Z,17.6
2018-06-02T00:53:31.562Z,17.58
2018-06-02T00:53:35.876Z,17.62
2018-06-02T00:53:39.983Z,17.6
2018-06-02T00:53:44.084Z,17.54
2018-06-02T00:53:48.401Z,17.6
2018-06-02T00:53:52.501Z,17.6
2018-06-02T00:53:56.824Z,17.65
2018-06-02T00:54:01.146Z,17.63
2018-06-02T00:54:05.355Z,17.62
2018-06-02T00:54:09.456Z,17.6
2018-06-02T00:54:13.459Z,17.63
2018-06-02T00:54:17.798Z,17.6
2018-06-02T00:54:21.914Z,17.55
2018-06-02T00:54:25.912Z,17.58